Time;durP1;ratioP1;P1;durP2;ratioP2;P2;SDS_P1;SDS_P2;PMS_P1;PMS_P2;Temp;Humidity;BMP_temperature;BMP_pressure;BME280_temperature;BME280_humidity;BME280_pressure;Samples;Min_cycle;Max_cycle;Signal;HPM_P1;HPM_P2
2021/12/19 00:00:24;;;;;;;30.80;20.55;;;;;;;6.25;70.06;100355.34;5083956;28;20048;-74
2021/12/19 00:03:09;;;;;;;28.63;22.73;;;;;;;6.11;70.07;100342.94;5081578;28;20055;-71
2021/12/19 00:08:40;;;;;;;24.80;21.48;;;;;;;6.18;69.51;100336.47;5083143;28;20059;-74
2021/12/19 00:11:06;;;;;;;22.73;17.02;;;;;;;6.14;69.76;100334.94;5084086;28;20143;-69
2021/12/19 00:13:34;;;;;;;25.00;16.52;;;;;;;6.23;69.50;100339.69;5081536;28;20127;-71
2021/12/19 00:16:02;;;;;;;21.63;18.75;;;;;;;6.21;69.44;100330.19;5083562;28;20044;-74
2021/12/19 00:18:29;;;;;;;26.50;17.98;;;;;;;6.27;69.18;100327.25;5085369;28;20044;-72
2021/12/19 00:20:56;;;;;;;22.92;16.13;;;;;;;6.29;69.25;100320.97;5085160;28;20054;-73
2021/12/19 00:23:23;;;;;;;22.88;14.88;;;;;;;6.33;69.00;100316.41;5084262;28;20044;-73
2021/12/19 00:25:50;;;;;;;23.83;17.65;;;;;;;6.31;68.92;100315.66;5084373;28;20203;-72
2021/12/19 00:28:17;;;;;;;19.08;11.77;;;;;;;6.32;69.05;100307.72;5084512;28;20048;-71
2021/12/19 00:30:44;;;;;;;24.10;16.65;;;;;;;6.35;68.94;100314.56;5083019;28;20051;-71
2021/12/19 00:33:13;;;;;;;21.30;16.25;;;;;;;6.38;69.06;100303.91;5090346;28;20051;-74
2021/12/19 00:35:40;;;;;;;23.73;16.42;;;;;;;6.31;69.12;100313.88;5090004;28;20048;-72
2021/12/19 00:38:07;;;;;;;25.88;17.20;;;;;;;6.33;69.35;100311.19;5084697;28;20052;-71
2021/12/19 00:40:36;;;;;;;25.90;17.25;;;;;;;6.36;69.37;100304.94;5083386;28;20656;-71
2021/12/19 00:43:06;;;;;;;27.15;19.25;;;;;;;6.34;69.48;100302.38;5083637;28;20641;-73
2021/12/19 00:45:35;;;;;;;26.05;19.17;;;;;;;6.32;69.53;100294.59;5082436;28;20126;-73
2021/12/19 00:48:06;;;;;;;23.00;16.65;;;;;;;6.30;69.90;100306.94;5084116;28;20047;-74
2021/12/19 00:50:36;;;;;;;22.92;17.10;;;;;;;6.38;69.63;100288.16;5087148;28;20072;-70
2021/12/19 00:53:04;;;;;;;21.98;14.07;;;;;;;6.43;69.61;100287.94;5085153;28;20052;-72
2021/12/19 00:55:31;;;;;;;28.27;19.58;;;;;;;6.37;69.75;100248.91;5083792;28;20093;-74
2021/12/19 00:57:58;;;;;;;26.02;14.77;;;;;;;6.44;69.58;100253.72;5083775;28;20479;-70
2021/12/19 01:00:29;;;;;;;17.35;9.50;;;;;;;6.51;69.49;100254.22;5080518;28;20054;-73
2021/12/19 01:02:58;;;;;;;24.52;18.17;;;;;;;6.46;69.33;100243.13;5083541;28;20048;-74
2021/12/19 01:05:26;;;;;;;26.35;20.42;;;;;;;6.37;69.80;100227.91;5082856;28;20044;-71
2021/12/19 01:07:55;;;;;;;24.58;15.88;;;;;;;6.39;69.86;100242.66;5083108;28;20081;-70
2021/12/19 01:10:22;;;;;;;25.10;18.52;;;;;;;6.39;69.94;100231.28;5082652;28;20055;-72
2021/12/19 01:12:49;;;;;;;25.65;16.38;;;;;;;6.49;69.55;100235.94;5082023;28;20064;-71
2021/12/19 01:15:18;;;;;;;23.70;12.88;;;;;;;6.51;69.60;100235.84;5080826;28;20479;-71
2021/12/19 01:17:45;;;;;;;27.75;16.48;;;;;;;6.50;69.59;100228.94;5083021;28;20056;-71
2021/12/19 01:20:17;;;;;;;24.42;14.73;;;;;;;6.60;69.41;100234.50;5082652;28;20056;-72
2021/12/19 01:22:44;;;;;;;30.23;21.20;;;;;;;6.53;69.56;100220.88;5083085;28;20044;-73
2021/12/19 01:25:13;;;;;;;25.25;18.00;;;;;;;6.55;69.41;100221.63;5082145;28;20765;-72
2021/12/19 01:27:40;;;;;;;19.80;15.43;;;;;;;6.42;69.26;100203.09;5083000;28;20193;-73
2021/12/19 01:30:10;;;;;;;19.88;16.10;;;;;;;6.47;69.18;100195.00;5083471;28;20127;-72
2021/12/19 01:32:37;;;;;;;16.17;13.27;;;;;;;6.44;69.03;100195.16;5084608;28;20115;-73
2021/12/19 01:35:05;;;;;;;15.32;9.38;;;;;;;6.53;68.79;100192.00;5082748;28;20048;-74
2021/12/19 01:37:33;;;;;;;16.27;11.90;;;;;;;6.53;68.42;100180.66;5086021;28;20592;-72
2021/12/19 01:40:00;;;;;;;12.68;9.25;;;;;;;6.51;68.43;100183.38;5086870;28;20055;-70
2021/12/19 01:42:32;;;;;;;13.75;12.35;;;;;;;6.50;68.37;100160.72;5086236;28;20063;-71
2021/12/19 01:45:00;;;;;;;13.57;12.18;;;;;;;6.41;68.56;100167.31;5084649;28;20048;-75
2021/12/19 01:47:27;;;;;;;14.68;10.45;;;;;;;6.46;68.49;100170.53;5088178;28;20052;-72
2021/12/19 01:49:55;;;;;;;13.65;10.50;;;;;;;6.45;68.45;100158.34;5086694;28;20055;-70
2021/12/19 01:52:22;;;;;;;15.38;13.68;;;;;;;6.42;68.49;100139.31;5085576;28;20484;-72
2021/12/19 01:54:50;;;;;;;14.18;12.30;;;;;;;6.39;68.63;100147.34;5087067;28;20048;-73
2021/12/19 01:57:17;;;;;;;14.57;11.30;;;;;;;6.34;68.76;100133.63;5086288;28;20475;-69
2021/12/19 01:59:45;;;;;;;14.10;9.10;;;;;;;6.40;68.62;100118.41;5087073;28;20075;-72
2021/12/19 02:02:12;;;;;;;13.50;10.00;;;;;;;6.40;68.71;100109.69;5086809;28;20488;-71
2021/12/19 02:04:40;;;;;;;14.13;10.73;;;;;;;6.36;68.85;100105.56;5087401;28;20040;-72
2021/12/19 02:07:06;;;;;;;14.32;9.98;;;;;;;6.41;68.80;100095.63;5086157;28;20086;-71
2021/12/19 02:09:33;;;;;;;15.20;10.45;;;;;;;6.44;68.80;100092.84;5085563;28;20040;-68
2021/12/19 02:12:00;;;;;;;14.32;11.20;;;;;;;6.49;68.67;100080.31;5085306;28;20056;-74
2021/12/19 02:14:27;;;;;;;18.08;12.85;;;;;;;6.49;68.70;100075.06;5085858;28;20051;-74
2021/12/19 02:16:56;;;;;;;12.70;9.70;;;;;;;6.49;68.77;100070.63;5086534;28;20051;-74
2021/12/19 02:19:24;;;;;;;12.45;7.57;;;;;;;6.60;68.56;100063.94;5086284;28;20152;-73
2021/12/19 02:21:53;;;;;;;11.65;8.15;;;;;;;6.59;68.70;100044.72;5086313;28;20081;-73
2021/12/19 02:24:19;;;;;;;12.20;9.82;;;;;;;6.61;68.53;100047.22;5086210;28;20059;-69
2021/12/19 02:26:47;;;;;;;14.38;10.50;;;;;;;6.60;68.57;100043.78;5086488;28;20116;-73
2021/12/19 02:29:14;;;;;;;11.60;9.13;;;;;;;6.64;68.42;100031.31;5084427;28;20052;-70
2021/12/19 02:31:41;;;;;;;12.48;11.00;;;;;;;6.57;68.80;100022.97;5085375;28;20048;-72
2021/12/19 02:34:14;;;;;;;10.27;8.20;;;;;;;6.60;68.81;100020.16;5086013;28;20105;-71
2021/12/19 02:36:54;;;;;;;10.80;8.70;;;;;;;6.69;68.68;100003.00;5086711;28;20056;-73
2021/12/19 02:39:51;;;;;;;12.95;8.48;;;;;;;6.70;68.67;99999.47;5085011;28;20641;-73
2021/12/19 02:48:11;;;;;;;14.13;8.52;;;;;;;6.88;68.42;99981.75;5022894;28;20103;-75
2021/12/19 02:50:43;;;;;;;11.50;8.05;;;;;;;6.83;68.39;99981.19;5022741;28;20057;-75
2021/12/19 02:53:10;;;;;;;9.98;8.07;;;;;;;6.89;68.28;99979.00;5021974;28;20056;-70
2021/12/19 02:55:39;;;;;;;10.45;9.35;;;;;;;6.87;68.36;99973.00;5022274;28;20064;-71
2021/12/19 02:58:06;;;;;;;11.95;8.13;;;;;;;6.87;68.29;99988.75;5022611;28;20192;-70
2021/12/19 03:00:34;;;;;;;11.50;8.52;;;;;;;6.85;68.48;99984.56;5022136;28;20502;-73
2021/12/19 03:03:01;;;;;;;11.77;7.85;;;;;;;6.91;68.40;99981.53;5022621;28;20057;-73
2021/12/19 03:05:30;;;;;;;13.30;9.23;;;;;;;6.89;68.35;99965.88;5022737;28;20058;-73
2021/12/19 03:07:57;;;;;;;10.80;9.23;;;;;;;6.87;68.61;99966.94;5022791;28;20049;-76
2021/12/19 03:13:23;;;;;;;9.57;6.63;;;;;;;6.99;68.73;99979.28;5022324;28;20060;-72
2021/12/19 03:18:34;;;;;;;10.10;7.78;;;;;;;6.97;68.69;99947.03;5086391;28;20071;-73
2021/12/19 03:21:02;;;;;;;9.45;7.38;;;;;;;7.02;68.70;99941.50;5086273;28;20051;-73
2021/12/19 03:23:29;;;;;;;12.48;8.80;;;;;;;7.00;68.84;99933.69;5086018;28;20071;-70
2021/12/19 03:25:56;;;;;;;8.55;5.53;;;;;;;7.01;68.99;99935.41;5085574;28;20048;-73
2021/12/19 03:28:25;;;;;;;12.43;9.82;;;;;;;6.99;69.18;99933.81;5085398;28;20097;-73
2021/12/19 03:30:54;;;;;;;11.35;7.93;;;;;;;6.96;69.28;99928.75;5086184;28;20050;-71
2021/12/19 03:33:21;;;;;;;11.45;8.77;;;;;;;7.00;69.22;99909.25;5085816;28;20397;-72
2021/12/19 03:35:48;;;;;;;12.43;9.30;;;;;;;6.97;69.47;99912.03;5084381;28;20071;-71
2021/12/19 03:38:18;;;;;;;11.05;8.10;;;;;;;6.98;69.63;99904.06;5084845;28;20056;-71
2021/12/19 03:40:52;;;;;;;13.27;8.60;;;;;;;6.98;69.54;99903.25;5088736;28;20040;-72
2021/12/19 03:43:22;;;;;;;13.90;9.25;;;;;;;7.10;69.38;99899.00;5083345;28;20051;-73
2021/12/19 03:45:51;;;;;;;11.38;10.18;;;;;;;7.03;69.57;99890.66;5084921;28;20403;-71
2021/12/19 03:48:18;;;;;;;12.45;8.85;;;;;;;7.02;69.77;99881.97;5085183;28;20420;-73
2021/12/19 03:50:49;;;;;;;10.40;8.50;;;;;;;7.04;69.58;99874.81;5084783;28;20069;-72
2021/12/19 03:53:19;;;;;;;13.63;9.48;;;;;;;7.05;69.87;99881.75;5084853;28;20054;-70
2021/12/19 03:55:46;;;;;;;12.30;7.53;;;;;;;7.12;69.44;99871.69;5084873;28;20052;-70
2021/12/19 03:58:13;;;;;;;11.27;8.18;;;;;;;7.04;69.84;99872.19;5088835;28;20044;-72
2021/12/19 04:00:42;;;;;;;10.88;9.73;;;;;;;6.99;70.00;99868.19;5084695;28;20055;-74
2021/12/19 04:03:18;;;;;;;14.20;10.23;;;;;;;6.99;70.07;99862.94;5084234;28;20062;-71
2021/12/19 04:05:45;;;;;;;11.68;8.63;;;;;;;6.99;70.05;99861.13;5084706;28;20136;-73
2021/12/19 04:08:13;;;;;;;10.57;8.30;;;;;;;6.96;70.41;99848.19;5086103;28;20070;-70
2021/12/19 04:10:40;;;;;;;14.77;9.48;;;;;;;7.01;70.23;99845.28;5085189;28;20054;-71
2021/12/19 04:13:07;;;;;;;14.32;12.27;;;;;;;6.99;70.39;99834.03;5085323;28;20606;-73
2021/12/19 04:15:34;;;;;;;16.08;11.82;;;;;;;6.96;70.42;99850.81;5087452;28;20054;-70
2021/12/19 04:18:01;;;;;;;12.13;6.28;;;;;;;7.06;70.34;99857.19;5100592;28;20119;-70
2021/12/19 04:20:29;;;;;;;10.93;8.40;;;;;;;7.07;70.49;99842.25;5099421;28;20063;-70
2021/12/19 04:22:56;;;;;;;17.20;10.65;;;;;;;7.04;70.68;99850.31;5101219;28;20049;-70
2021/12/19 04:25:23;;;;;;;14.55;11.98;;;;;;;7.07;70.74;99839.63;5100949;28;20054;-72
2021/12/19 04:27:50;;;;;;;15.63;12.00;;;;;;;7.03;70.85;99848.66;5101430;28;20036;-74
2021/12/19 04:30:21;;;;;;;13.63;10.98;;;;;;;7.02;71.11;99837.31;5102370;28;20078;-70
2021/12/19 04:32:57;;;;;;;16.63;10.55;;;;;;;7.04;71.05;99835.44;5086496;28;20052;-73
2021/12/19 04:35:25;;;;;;;16.80;11.50;;;;;;;7.07;70.99;99824.72;5085111;28;20044;-73
2021/12/19 04:38:26;;;;;;;16.65;11.50;;;;;;;7.12;71.12;99826.22;5087721;28;20044;-72
2021/12/19 04:41:04;;;;;;;16.60;13.55;;;;;;;7.11;71.08;99817.47;5085956;28;20087;-69
2021/12/19 04:52:05;;;;;;;19.58;16.70;;;;;;;7.12;71.36;99818.34;5022931;28;20695;-70
2021/12/19 04:54:50;;;;;;;21.02;15.38;;;;;;;7.07;71.67;99818.63;5021054;28;20081;-73
2021/12/19 04:57:29;;;;;;;20.17;14.43;;;;;;;7.15;71.36;99805.84;5022216;28;20129;-69
2021/12/19 05:00:00;;;;;;;22.63;18.15;;;;;;;7.12;71.49;99797.31;5022662;28;20049;-72
2021/12/19 05:16:15;;;;;;;28.95;19.52;;;;;;;7.20;71.33;99750.38;5025300;28;20056;-70
2021/12/19 05:18:44;;;;;;;24.38;17.90;;;;;;;7.21;71.26;99752.06;5024087;28;20540;-72
2021/12/19 05:21:16;;;;;;;22.83;19.30;;;;;;;7.24;71.26;99751.88;5023939;28;20049;-73
2021/12/19 05:26:31;;;;;;;24.77;17.05;;;;;;;7.30;70.85;99756.69;5057197;28;20127;-70
2021/12/19 05:28:58;;;;;;;30.15;18.80;;;;;;;7.30;70.90;99745.38;5087822;28;20131;-71
2021/12/19 05:31:25;;;;;;;26.88;18.77;;;;;;;7.29;70.92;99752.38;5087383;28;20044;-72
2021/12/19 05:33:52;;;;;;;24.17;19.27;;;;;;;7.32;70.50;99725.91;5086561;28;20058;-71
2021/12/19 05:47:21;;;;;;;19.80;16.38;;;;;;;7.32;70.37;99741.69;5086850;28;20580;-73
2021/12/19 05:49:48;;;;;;;21.23;17.95;;;;;;;7.35;70.34;99745.91;5087417;28;20135;-72
2021/12/19 05:52:15;;;;;;;27.92;15.80;;;;;;;7.37;70.19;99742.22;5086852;28;20587;-72
2021/12/19 05:54:42;;;;;;;24.55;17.33;;;;;;;7.38;69.93;99751.78;5085502;28;20052;-69
2021/12/19 05:57:11;;;;;;;24.17;17.45;;;;;;;7.35;69.98;99738.84;5086933;28;20056;-72
2021/12/19 05:59:38;;;;;;;20.83;14.63;;;;;;;7.41;69.69;99754.19;5087350;28;20055;-70
2021/12/19 06:02:04;;;;;;;24.27;15.43;;;;;;;7.41;69.84;99745.47;5086857;28;20052;-72
2021/12/19 06:04:32;;;;;;;22.02;14.48;;;;;;;7.40;69.83;99742.00;5086559;28;20079;-72
2021/12/19 06:06:59;;;;;;;25.58;16.20;;;;;;;7.39;69.91;99739.50;5086781;28;20048;-73
2021/12/19 06:09:26;;;;;;;21.38;14.70;;;;;;;7.30;69.76;99751.44;5085386;28;20155;-70
2021/12/19 06:11:53;;;;;;;19.52;14.35;;;;;;;7.32;69.64;99752.19;5086715;28;20169;-69
2021/12/19 06:14:22;;;;;;;22.02;14.80;;;;;;;7.39;69.56;99744.75;5085005;28;20075;-74
2021/12/19 06:16:49;;;;;;;20.92;14.20;;;;;;;7.37;69.54;99751.88;5086861;28;20048;-72
2021/12/19 06:19:17;;;;;;;26.85;16.50;;;;;;;7.41;69.46;99766.50;5086264;28;20074;-72
2021/12/19 06:21:44;;;;;;;20.15;13.65;;;;;;;7.39;69.58;99740.31;5086233;28;20052;-72
2021/12/19 06:24:11;;;;;;;18.42;13.50;;;;;;;7.39;69.57;99745.56;5087004;28;20048;-75
2021/12/19 06:26:39;;;;;;;20.33;11.85;;;;;;;7.40;69.72;99731.50;5085460;28;20044;-71
2021/12/19 06:29:06;;;;;;;27.58;17.65;;;;;;;7.41;69.65;99727.09;5084514;28;20044;-71
2021/12/19 06:31:35;;;;;;;20.33;14.00;;;;;;;7.39;69.98;99735.06;5089211;28;20040;-69
2021/12/19 06:34:03;;;;;;;22.35;15.25;;;;;;;7.38;69.78;99729.91;5091256;28;20530;-73
2021/12/19 06:36:30;;;;;;;22.98;14.63;;;;;;;7.31;70.03;99737.38;5084831;28;20079;-70
2021/12/19 06:38:57;;;;;;;20.38;13.27;;;;;;;7.33;70.05;99730.25;5085557;28;20048;-69
2021/12/19 06:41:24;;;;;;;23.83;13.00;;;;;;;7.30;70.12;99719.94;5087784;28;20129;-73
2021/12/19 06:43:51;;;;;;;20.80;13.77;;;;;;;7.30;69.80;99727.81;5084270;28;20643;-73
2021/12/19 06:46:18;;;;;;;17.23;12.80;;;;;;;7.25;70.02;99711.50;5085284;28;20495;-71
2021/12/19 06:48:47;;;;;;;18.27;13.02;;;;;;;7.23;70.22;99718.66;5086055;28;20691;-71
2021/12/19 06:51:13;;;;;;;20.42;11.40;;;;;;;7.21;70.19;99710.88;5086709;28;20397;-69
2021/12/19 06:53:40;;;;;;;18.45;13.63;;;;;;;7.22;70.15;99711.72;5105190;28;20475;-72
2021/12/19 06:56:07;;;;;;;21.35;14.85;;;;;;;7.22;70.24;99690.69;5104967;28;20437;-72
2021/12/19 06:58:34;;;;;;;18.02;11.23;;;;;;;7.21;70.19;99708.25;5105073;28;20619;-71
2021/12/19 07:01:03;;;;;;;16.33;11.82;;;;;;;7.24;70.33;99704.59;5105645;28;20050;-72
2021/12/19 07:03:30;;;;;;;23.75;12.98;;;;;;;7.23;70.12;99714.22;5105324;28;20058;-70
2021/12/19 07:05:59;;;;;;;18.13;11.82;;;;;;;7.25;70.18;99706.25;5105832;28;20059;-74
2021/12/19 07:08:26;;;;;;;14.38;12.82;;;;;;;7.22;70.08;99704.69;5106358;28;20040;-73
2021/12/19 07:10:53;;;;;;;19.08;12.20;;;;;;;7.20;69.89;99697.84;5105610;28;20070;-74
2021/12/19 07:13:21;;;;;;;16.73;11.85;;;;;;;7.20;70.05;99705.72;5105608;28;20047;-73
2021/12/19 07:15:55;;;;;;;13.52;11.48;;;;;;;7.15;70.06;99694.69;5103100;28;20060;-72
2021/12/19 07:18:22;;;;;;;18.45;11.80;;;;;;;7.24;69.87;99694.09;5104144;28;20048;-74
2021/12/19 07:20:50;;;;;;;18.05;10.95;;;;;;;7.22;69.83;99706.44;5105887;28;20160;-73
2021/12/19 07:23:20;;;;;;;14.93;11.82;;;;;;;7.25;69.98;99706.25;5103801;28;20047;-72
2021/12/19 07:25:48;;;;;;;15.23;11.50;;;;;;;7.23;70.07;99682.72;5103793;28;20051;-71
2021/12/19 07:28:15;;;;;;;18.13;11.82;;;;;;;7.23;70.03;99692.38;5103264;28;20569;-72
2021/12/19 07:30:44;;;;;;;18.48;13.70;;;;;;;7.26;69.93;99686.94;5089978;28;20046;-71
2021/12/19 07:33:12;;;;;;;16.58;13.25;;;;;;;7.26;69.98;99685.16;5046521;28;20048;-70
2021/12/19 07:35:44;;;;;;;16.20;11.85;;;;;;;7.23;70.13;99677.47;5084064;28;20128;-72
2021/12/19 07:38:16;;;;;;;14.32;11.38;;;;;;;7.32;69.96;99694.38;5085224;28;20473;-72
2021/12/19 07:40:47;;;;;;;14.38;12.18;;;;;;;7.31;70.10;99692.72;5083385;28;20054;-72
2021/12/19 07:43:14;;;;;;;18.50;12.43;;;;;;;7.36;69.82;99689.78;5083837;28;20512;-71
2021/12/19 07:45:41;;;;;;;19.20;13.43;;;;;;;7.31;69.73;99695.34;5082185;28;20074;-72
2021/12/19 07:48:08;;;;;;;16.20;12.23;;;;;;;7.33;69.81;99689.97;5082944;28;20055;-72
2021/12/19 07:50:35;;;;;;;21.08;13.38;;;;;;;7.38;69.76;99691.38;5083495;28;20047;-69
2021/12/19 07:53:03;;;;;;;14.07;12.05;;;;;;;7.30;69.84;99670.00;5083935;28;20079;-72
2021/12/19 07:55:34;;;;;;;18.77;10.68;;;;;;;7.27;69.84;99680.72;5082600;28;20044;-70
2021/12/19 07:58:02;;;;;;;16.73;10.75;;;;;;;7.25;69.93;99685.25;5084788;28;20051;-73
2021/12/19 08:00:29;;;;;;;20.88;15.70;;;;;;;7.27;69.87;99686.84;5083876;28;20048;-72
2021/12/19 08:02:56;;;;;;;19.67;11.65;;;;;;;7.30;69.91;99692.81;5082025;28;20054;-70
2021/12/19 08:05:23;;;;;;;20.83;12.23;;;;;;;7.30;69.96;99687.56;5084243;28;20051;-71
2021/12/19 08:07:56;;;;;;;22.55;13.80;;;;;;;7.33;69.95;99698.72;5084701;28;20048;-72
2021/12/19 08:13:09;;;;;;;17.83;13.40;;;;;;;7.33;69.90;99679.47;5091332;28;20055;-82
2021/12/19 08:15:38;;;;;;;23.00;15.40;;;;;;;7.26;70.21;99689.56;5085776;28;20051;-73
2021/12/19 08:18:09;;;;;;;23.85;14.27;;;;;;;7.22;70.28;99686.31;5088780;28;20058;-81
2021/12/19 08:20:37;;;;;;;20.95;13.40;;;;;;;7.27;70.25;99670.22;5092708;28;20051;-74
2021/12/19 08:23:03;;;;;;;23.80;13.30;;;;;;;7.28;70.22;99685.03;5087061;28;20126;-69
2021/12/19 08:25:30;;;;;;;30.30;20.15;;;;;;;7.31;70.19;99679.59;5101741;28;20059;-69
2021/12/19 08:27:58;;;;;;;36.22;20.80;;;;;;;7.31;70.20;99679.59;5102415;28;20051;-70
2021/12/19 08:30:28;;;;;;;20.85;13.75;;;;;;;7.34;70.19;99692.50;5101302;28;20187;-72
2021/12/19 08:32:56;;;;;;;30.65;17.92;;;;;;;7.38;70.06;99690.50;5091309;28;20040;-69
2021/12/19 08:35:24;;;;;;;18.75;16.55;;;;;;;7.36;70.08;99692.41;5088431;28;20679;-68
2021/12/19 08:37:51;;;;;;;28.27;15.65;;;;;;;7.38;70.01;99691.38;5090378;28;20055;-69
2021/12/19 08:40:18;;;;;;;22.30;14.55;;;;;;;7.38;69.89;99682.63;5092312;28;20058;-70
2021/12/19 08:42:46;;;;;;;25.73;14.52;;;;;;;7.34;70.19;99687.25;5091600;28;20048;-71
2021/12/19 08:45:13;;;;;;;19.27;13.10;;;;;;;7.45;69.87;99690.00;5089217;28;20065;-66
2021/12/19 08:47:41;;;;;;;24.58;16.48;;;;;;;7.41;69.74;99691.13;5092407;28;20044;-71
2021/12/19 08:50:09;;;;;;;22.52;17.13;;;;;;;7.45;69.64;99681.25;5083824;28;20044;-72
2021/12/19 08:52:36;;;;;;;16.23;12.38;;;;;;;7.47;69.45;99696.00;5084020;28;20040;-71
2021/12/19 08:55:06;;;;;;;26.30;13.80;;;;;;;7.55;69.56;99692.00;5083685;28;20051;-71
2021/12/19 08:57:33;;;;;;;17.67;13.00;;;;;;;7.56;69.34;99686.63;5084624;28;20040;-72
2021/12/19 09:00:00;;;;;;;20.20;12.65;;;;;;;7.58;68.94;99679.47;5084720;28;20059;-73
2021/12/19 09:02:27;;;;;;;20.33;13.48;;;;;;;7.64;68.95;99675.56;5085948;28;20157;-72
2021/12/19 09:05:03;;;;;;;18.70;10.88;;;;;;;7.63;68.79;99689.66;5085500;28;20044;-72
2021/12/19 09:07:30;;;;;;;20.38;14.98;;;;;;;7.65;68.61;99674.63;5084289;28;20543;-72
2021/12/19 09:09:58;;;;;;;17.65;11.52;;;;;;;7.67;68.39;99688.53;5088030;28;20044;-77
2021/12/19 09:12:27;;;;;;;24.73;14.93;;;;;;;7.71;68.40;99689.97;5089873;28;20400;-78
2021/12/19 09:14:54;;;;;;;24.13;13.13;;;;;;;7.74;68.16;99686.28;5091020;28;20039;-71
2021/12/19 09:17:23;;;;;;;16.05;11.75;;;;;;;7.73;68.12;99676.72;5093329;28;20411;-79
2021/12/19 09:19:51;;;;;;;18.38;13.32;;;;;;;7.74;67.96;99681.88;5098642;28;20319;-74
2021/12/19 09:22:19;;;;;;;19.35;12.82;;;;;;;7.76;67.87;99664.22;5106686;28;20378;-77
2021/12/19 09:24:46;;;;;;;20.45;12.35;;;;;;;7.83;67.66;99665.47;5102501;28;20646;-74
2021/12/19 09:27:13;;;;;;;18.95;12.05;;;;;;;7.82;67.46;99662.94;5090246;28;20056;-71
2021/12/19 09:29:40;;;;;;;26.13;13.13;;;;;;;7.88;67.25;99659.03;5088754;28;20048;-72
2021/12/19 09:32:07;;;;;;;14.68;10.50;;;;;;;7.88;67.13;99661.66;5086573;28;20062;-74
2021/12/19 09:34:36;;;;;;;22.27;11.70;;;;;;;7.93;67.27;99670.91;5085619;28;20193;-77
2021/12/19 09:37:03;;;;;;;20.77;10.70;;;;;;;8.06;67.15;99659.50;5096566;28;20067;-76
2021/12/19 09:39:32;;;;;;;14.57;9.35;;;;;;;8.04;66.66;99649.09;5094305;28;20044;-78
2021/12/19 09:42:07;;;;;;;15.05;11.40;;;;;;;8.11;66.67;99657.41;5089312;28;20052;-76
2021/12/19 09:44:35;;;;;;;18.52;11.23;;;;;;;8.04;66.48;99651.72;5087996;28;20654;-73
2021/12/19 09:47:02;;;;;;;17.83;10.80;;;;;;;8.09;66.56;99638.25;5088110;28;20244;-76
2021/12/19 09:49:29;;;;;;;18.08;11.80;;;;;;;8.08;66.31;99637.41;5101191;28;20048;-72
2021/12/19 09:51:57;;;;;;;17.33;10.98;;;;;;;8.04;66.08;99634.16;5093516;28;20040;-72
2021/12/19 09:54:25;;;;;;;18.77;11.88;;;;;;;8.07;66.34;99619.09;5099282;28;20055;-78
2021/12/19 09:56:53;;;;;;;17.15;9.98;;;;;;;8.12;66.16;99617.84;5095098;28;20048;-72
2021/12/19 09:59:22;;;;;;;15.55;9.30;;;;;;;8.13;66.18;99622.13;5088341;28;20048;-73
2021/12/19 10:01:51;;;;;;;16.63;11.25;;;;;;;8.14;65.88;99607.19;5089678;28;20039;-72
2021/12/19 10:04:35;;;;;;;19.50;11.30;;;;;;;8.18;65.95;99608.66;5091932;28;20046;-71
2021/12/19 10:07:21;;;;;;;16.38;9.23;;;;;;;8.27;65.68;99605.34;5079406;28;20101;-72
2021/12/19 10:09:54;;;;;;;;;;;;;;;8.58;64.66;99595.22;5089172;28;20047;-69
2021/12/19 10:15:11;;;;;;;18.05;8.60;;;;;;;8.67;64.93;99575.25;5087638;28;20050;-72
2021/12/19 10:17:39;;;;;;;15.13;9.07;;;;;;;8.69;64.01;99573.34;5097481;28;20075;-73
2021/12/19 10:20:09;;;;;;;18.25;8.40;;;;;;;8.58;64.39;99577.63;5097309;28;20036;-70
2021/12/19 10:22:39;;;;;;;17.50;9.25;;;;;;;8.53;64.47;99590.28;5100015;28;20128;-70
2021/12/19 10:25:19;;;;;;;12.73;9.80;;;;;;;8.53;64.83;99585.00;5094228;28;20040;-67
2021/12/19 10:27:50;;;;;;;14.75;8.77;;;;;;;8.45;64.47;99587.41;5086367;28;20050;-69
2021/12/19 10:30:22;;;;;;;22.30;10.07;;;;;;;8.40;64.63;99578.97;5089400;28;20431;-70
2021/12/19 10:33:00;;;;;;;15.50;10.23;;;;;;;8.41;64.56;99562.25;5089064;28;20440;-70
2021/12/19 10:35:33;;;;;;;15.32;8.95;;;;;;;8.35;64.90;99570.56;5091215;28;20047;-69
2021/12/19 10:38:04;;;;;;;21.25;9.98;;;;;;;8.36;65.07;99562.56;5052186;28;20311;-71
2021/12/19 10:40:33;;;;;;;17.70;8.77;;;;;;;8.39;64.79;99550.97;5090543;28;20073;-74
2021/12/19 10:43:07;;;;;;;14.90;9.30;;;;;;;8.37;64.51;99537.09;5088711;28;20044;-74
2021/12/19 10:45:46;;;;;;;15.07;9.13;;;;;;;8.37;64.54;99529.19;5090466;28;20545;-70
2021/12/19 10:48:26;;;;;;;19.75;10.13;;;;;;;8.37;64.25;99531.81;5097558;28;20521;-77
2021/12/19 10:51:02;;;;;;;13.88;9.73;;;;;;;8.38;64.36;99534.34;5088468;28;20052;-74
2021/12/19 10:53:37;;;;;;;15.05;8.27;;;;;;;8.36;63.93;99517.84;5074913;28;20048;-69
2021/12/19 10:56:10;;;;;;;15.82;7.57;;;;;;;8.42;63.37;99525.28;5092517;28;20110;-71
2021/12/19 10:58:53;;;;;;;17.85;7.95;;;;;;;8.58;63.38;99524.13;5089635;28;20047;-70
2021/12/19 11:01:26;;;;;;;14.93;8.60;;;;;;;8.53;62.87;99503.41;5085304;28;20731;-72
2021/12/19 11:04:11;;;;;;;15.68;8.07;;;;;;;8.50;62.76;99522.09;5037437;28;20127;-71
2021/12/19 11:06:41;;;;;;;16.83;9.15;;;;;;;8.52;63.17;99512.28;5091270;28;20143;-74
2021/12/19 11:09:12;;;;;;;13.45;7.47;;;;;;;8.51;62.94;99502.72;5089172;28;20044;-72
2021/12/19 11:11:55;;;;;;;26.10;9.30;;;;;;;8.55;62.63;99498.03;5086631;28;20044;-71
2021/12/19 11:14:30;;;;;;;17.02;9.13;;;;;;;8.53;62.65;99502.59;5055936;28;20062;-75
2021/12/19 11:17:03;;;;;;;17.17;8.98;;;;;;;8.53;62.50;99489.44;5087230;28;20047;-72
2021/12/19 11:19:31;;;;;;;14.68;8.45;;;;;;;8.41;62.76;99494.66;5043149;28;20068;-69
2021/12/19 11:21:59;;;;;;;16.38;9.13;;;;;;;8.39;62.93;99493.94;5090814;28;20502;-73
2021/12/19 11:24:31;;;;;;;20.77;8.93;;;;;;;8.45;63.10;99487.41;5091967;28;20113;-74
2021/12/19 11:27:04;;;;;;;19.40;10.43;;;;;;;8.48;63.00;99492.44;5094103;28;20044;-73
2021/12/19 11:29:33;;;;;;;16.20;9.55;;;;;;;8.51;62.80;99481.66;5082773;28;20658;-75
2021/12/19 11:32:07;;;;;;;19.13;8.82;;;;;;;8.49;62.62;99480.94;5092754;28;20115;-73
2021/12/19 11:34:57;;;;;;;14.27;8.40;;;;;;;8.54;62.44;99484.06;5094584;28;20044;-73
2021/12/19 11:37:28;;;;;;;16.00;7.88;;;;;;;8.53;62.01;99471.84;5103459;28;20285;-72
2021/12/19 11:39:56;;;;;;;11.23;7.78;;;;;;;8.48;62.53;99481.91;5089303;28;20044;-74
2021/12/19 11:42:31;;;;;;;19.60;9.18;;;;;;;8.45;62.38;99476.88;5094063;28;20059;-74
2021/12/19 11:45:25;;;;;;;17.48;9.52;;;;;;;8.45;62.86;99484.75;5088137;28;20071;-80
2021/12/19 11:47:56;;;;;;;16.75;9.85;;;;;;;8.48;62.62;99475.78;5092833;28;20050;-77
2021/12/19 11:50:27;;;;;;;15.23;8.15;;;;;;;8.45;62.57;99466.34;5100859;28;20159;-77
2021/12/19 11:52:57;;;;;;;23.50;11.32;;;;;;;8.40;62.70;99465.81;5095528;28;20288;-75
2021/12/19 11:55:34;;;;;;;21.13;12.88;;;;;;;8.42;62.92;99461.31;5092450;28;20040;-75
2021/12/19 11:58:28;;;;;;;19.75;10.48;;;;;;;8.42;62.80;99451.59;5090862;28;20055;-71
2021/12/19 12:00:59;;;;;;;12.27;7.10;;;;;;;8.41;62.97;99465.69;5097103;28;20048;-76
2021/12/19 12:03:29;;;;;;;24.42;14.50;;;;;;;8.41;63.05;99462.25;5094677;28;20586;-74
2021/12/19 12:06:31;;;;;;;17.80;11.63;;;;;;;8.38;62.90;99457.22;5094540;28;20043;-73
2021/12/19 12:09:28;;;;;;;20.73;12.90;;;;;;;8.38;63.02;99449.31;5091731;28;20044;-73
2021/12/19 12:12:20;;;;;;;22.38;12.88;;;;;;;8.33;62.88;99451.44;5084574;28;20289;-70
2021/12/19 12:15:03;;;;;;;17.83;11.50;;;;;;;8.34;63.07;99453.97;5089861;28;20329;-76
2021/12/19 12:17:38;;;;;;;14.57;9.05;;;;;;;8.31;63.17;99442.84;5086838;28;20044;-74
2021/12/19 12:20:32;;;;;;;13.52;7.47;;;;;;;8.39;62.70;99436.03;5088965;28;20039;-73
2021/12/19 12:23:09;;;;;;;24.80;10.27;;;;;;;8.34;62.43;99418.94;5104924;28;20076;-74
2021/12/19 12:25:41;;;;;;;13.88;9.73;;;;;;;8.22;62.99;99423.31;5097961;28;20066;-71
2021/12/19 12:28:15;;;;;;;11.75;7.97;;;;;;;8.22;63.12;99431.22;5096365;28;20581;-76
2021/12/19 12:30:45;;;;;;;16.27;8.25;;;;;;;8.19;62.75;99423.56;5093600;28;20750;-72
2021/12/19 12:33:16;;;;;;;22.35;10.73;;;;;;;8.26;62.72;99418.66;5095696;28;20687;-72
2021/12/19 12:35:46;;;;;;;14.38;8.95;;;;;;;8.22;62.71;99416.25;5085920;28;20040;-74